METAR AND TAF INFORMATION
METAR FOR GABS
ADDS - METARS form results

(0435 UTC 19 March 2019)
Data provider http://aviationweather.gov/metar/data/
 
Forecast for: GABS (BAMAKO/SENOU (MI, ML)
Text: TAF GABS 182300Z 1900/2006 18006KT 6000 NSC
Forecast period: 0000 UTC 19 March 2019 to 0600 UTC 20 March 2019
Forecast type: FROM: standard forecast or significant change
Winds: from the S (180 degrees) at 7 MPH (6 knots; 3.1 m/s)
Visibility: 4 miles (6 km)
Ceiling: unknown
Clouds: missing
Weather: no significant weather forecast for this period

 AIRPORT MAP

 RUNWAY INFORMATION
Runway 06 Runway length 8879 ft Runway width 148 ft
Runway elevation 1187 ft Runway displaced threshold 0 ft Runway heading 57
Runway 24 Runway length 8879 ft Runway width 148 ft
Runway elevation 1244 ft Runway displaced threshold 0 ft Runway heading 237

 AIRPORT FREQUENCIES
Type A/G Name A/G Frequency 667.3 MHZ
Type ACC Name ACC Frequency 119.1 MHZ
Type TWR Name TWR Frequency 118.3 MHZ

 AIRPORT NEAR NAVIGATION AIDS
Type VOR-DME Name Bamako/Senou Frequency 113700 KHZ
Type NDB Name Bamako/Senou Frequency 301 KHZ



Powered by Virtual Airlines Manager [v2.6.2]